KLIT/LIT METAR and TAF weather

Enter ICAO airport designator
Station Type Date Time Source
KLIT METAR 2022/12/04 10:53 UTC NOAA

KLIT 041053Z 07004KT 10SM FEW120 OVC250 03/M04 A3037 RMK AO2 SLP288 T00331044


Station Type Date Time Source
KLIT Decoded METAR 2022/12/04 10:53 UTC NOAA

LITTLE ROCK ADAMS FIELD, AR, United States (KLIT) 34-44N 92-14W 79M
Dec 04, 2022 - 05:53 AM EST / 2022.12.04 1053 UTC
Wind: from the ENE (070 degrees) at 5 MPH (4 KT):0
Visibility: 10 mile(s):0
Sky conditions: overcast
Temperature: 37.9 F (3.3 C)
Dew Point: 24.1 F (-4.4 C)
Relative Humidity: 56%
Pressure (altimeter): 30.37 in. Hg (1028 hPa)
ob: KLIT 041053Z 07004KT 10SM FEW120 OVC250 03/M04 A3037 RMK AO2 SLP288 T00331044
cycle: 11

Station Type Date Time Source
KLIT TAF 2022/12/04 12:22 UTC NOAA

TAF KLIT 041120Z 0412/0512 06005KT P6SM SCT060 OVC150
FM041400 06005KT P6SM VCSH SCT040 OVC060
TEMPO 0415/0419 -RA BKN035
FM050000 VRB05KT P6SM SCT015 OVC030
FM050600 VRB03KT P6SM OVC015

Example: see airport list